createdAt,value
2023-04-22T00:00:48.077Z,8.05
2023-04-22T00:03:15.933Z,7.75
2023-04-22T00:05:44.970Z,8.38
2023-04-22T00:08:12.700Z,7.40
2023-04-22T00:10:41.847Z,7.43
2023-04-22T00:13:09.516Z,7.32
2023-04-22T00:15:37.247Z,6.85
2023-04-22T00:18:05.164Z,7.50
2023-04-22T00:20:33.436Z,7.25
2023-04-22T00:23:01.073Z,7.70
2023-04-22T00:25:28.782Z,6.78
2023-04-22T00:27:57.944Z,7.30
2023-04-22T00:30:25.746Z,6.78
2023-04-22T00:32:53.942Z,8.80
2023-04-22T00:35:21.958Z,8.73
2023-04-22T00:37:49.924Z,9.32
2023-04-22T00:40:18.263Z,7.03
2023-04-22T00:42:45.970Z,7.18
2023-04-22T00:45:18.026Z,6.82
2023-04-22T00:47:45.955Z,7.53
2023-04-22T00:50:13.877Z,8.23
2023-04-22T00:52:41.576Z,14.85
2023-04-22T00:55:09.800Z,9.97
2023-04-22T00:57:37.592Z,7.40
2023-04-22T01:00:06.634Z,6.75
2023-04-22T01:02:35.970Z,8.00
2023-04-22T01:05:03.981Z,6.57
2023-04-22T01:07:31.694Z,6.70
2023-04-22T01:09:59.500Z,7.40
2023-04-22T01:12:27.216Z,6.97
2023-04-22T01:14:57.127Z,7.40
2023-04-22T01:17:25.846Z,7.35
2023-04-22T01:19:55.812Z,10.25
2023-04-22T01:22:23.947Z,6.68
2023-04-22T01:24:53.068Z,6.83
2023-04-22T01:27:20.758Z,7.10
2023-04-22T01:29:48.680Z,7.00
2023-04-22T01:32:16.458Z,6.57
2023-04-22T01:34:44.201Z,6.53
2023-04-22T01:37:12.036Z,7.00
2023-04-22T01:39:39.975Z,6.30
2023-04-22T01:42:09.613Z,6.93
2023-04-22T01:44:37.278Z,6.40
2023-04-22T01:47:05.418Z,7.57
2023-04-22T01:50:22.772Z,6.88
2023-04-22T01:52:50.703Z,7.05
2023-04-22T01:55:18.381Z,6.80
2023-04-22T01:57:47.514Z,6.87
2023-04-22T02:00:15.641Z,7.40
2023-04-22T02:02:43.413Z,7.18
2023-04-22T02:05:12.627Z,6.78
2023-04-22T02:07:40.358Z,7.55
2023-04-22T02:10:09.469Z,7.65
2023-04-22T02:12:37.174Z,7.70
2023-04-22T02:15:07.415Z,7.55
2023-04-22T02:17:35.879Z,7.43
2023-04-22T02:20:04.809Z,8.65
2023-04-22T02:22:33.046Z,7.95
2023-04-22T02:25:01.395Z,7.57
2023-04-22T02:27:29.069Z,7.78
2023-04-22T02:29:56.690Z,8.38
2023-04-22T02:32:25.780Z,8.15
2023-04-22T02:34:53.921Z,8.70
2023-04-22T02:37:22.850Z,8.38
2023-04-22T02:39:53.256Z,8.32
2023-04-22T02:42:20.938Z,7.95
2023-04-22T02:44:48.589Z,7.90
2023-04-22T02:47:16.233Z,7.72
2023-04-22T02:49:45.471Z,7.80
2023-04-22T02:52:13.175Z,8.57
2023-04-22T02:54:40.803Z,7.40
2023-04-22T02:57:08.751Z,7.57
2023-04-22T02:59:37.128Z,7.72
2023-04-22T03:02:06.846Z,8.02
2023-04-22T03:04:34.886Z,7.90
2023-04-22T03:07:04.339Z,7.18
2023-04-22T03:09:32.002Z,7.93
2023-04-22T03:11:59.878Z,7.30
2023-04-22T03:14:27.495Z,8.07
2023-04-22T03:16:55.480Z,7.82
2023-04-22T03:19:23.371Z,7.60
2023-04-22T03:21:51.010Z,7.78
2023-04-22T03:24:20.049Z,8.25
2023-04-22T03:26:47.810Z,7.72
2023-04-22T03:29:15.681Z,8.40
2023-04-22T03:31:43.336Z,8.00
2023-04-22T03:34:10.986Z,8.07
2023-04-22T03:36:38.731Z,8.20
2023-04-22T03:39:06.386Z,7.72
2023-04-22T03:41:36.040Z,9.88
2023-04-22T03:44:03.665Z,9.00
2023-04-22T03:46:32.031Z,9.37
2023-04-22T03:48:59.873Z,10.32
2023-04-22T03:51:27.562Z,9.07
2023-04-22T03:54:15.850Z,10.35
2023-04-22T03:56:44.922Z,10.15
2023-04-22T03:59:12.598Z,9.57
2023-04-22T04:01:40.255Z,10.77
2023-04-22T04:04:08.210Z,10.10
2023-04-22T04:06:36.023Z,10.38
2023-04-22T04:09:04.298Z,10.60
2023-04-22T04:11:32.015Z,9.25
2023-04-22T04:14:01.111Z,10.00
2023-04-22T04:16:28.936Z,10.13
2023-04-22T04:18:56.666Z,10.10
2023-04-22T04:21:24.320Z,9.85
2023-04-22T04:23:51.945Z,10.05
2023-04-22T04:26:20.506Z,10.02
2023-04-22T04:28:49.252Z,9.23
2023-04-22T04:31:18.499Z,8.80
2023-04-22T04:33:46.696Z,8.27
2023-04-22T04:36:14.484Z,8.23
2023-04-22T04:38:42.195Z,8.23
2023-04-22T04:41:10.698Z,8.43
2023-04-22T04:43:39.042Z,8.13
2023-04-22T04:46:08.385Z,8.60
2023-04-22T04:48:37.527Z,7.63
2023-04-22T04:51:06.267Z,7.28
2023-04-22T04:53:33.974Z,8.23
2023-04-22T04:56:01.610Z,8.63
2023-04-22T04:58:29.268Z,7.97
2023-04-22T05:00:56.911Z,8.52
2023-04-22T05:03:24.797Z,8.60
2023-04-22T05:05:54.035Z,9.30
2023-04-22T05:08:21.785Z,9.48
2023-04-22T05:10:49.522Z,9.10
2023-04-22T05:13:17.162Z,6.82
2023-04-22T05:15:44.826Z,8.52
2023-04-22T05:18:12.481Z,9.20
2023-04-22T05:20:40.134Z,8.27
2023-04-22T05:23:09.164Z,8.30
2023-04-22T05:25:36.876Z,8.23
2023-04-22T05:28:04.588Z,8.75
2023-04-22T05:30:32.280Z,8.23
2023-04-22T05:32:59.963Z,8.45
2023-04-22T05:35:28.391Z,7.43
2023-04-22T05:37:56.010Z,8.60
2023-04-22T05:40:25.331Z,8.13
2023-04-22T05:42:52.978Z,8.48
2023-04-22T05:45:20.693Z,7.75
2023-04-22T05:47:48.634Z,8.25
2023-04-22T05:50:16.290Z,8.03
2023-04-22T05:52:43.939Z,7.95
2023-04-22T05:55:11.653Z,8.52
2023-04-22T05:57:40.707Z,7.82
2023-04-22T06:00:10.427Z,8.60
2023-04-22T06:02:38.248Z,8.80
2023-04-22T06:05:07.230Z,8.07
2023-04-22T06:07:35.038Z,7.50
2023-04-22T06:10:05.362Z,7.90
2023-04-22T06:12:34.125Z,7.80
2023-04-22T06:15:03.320Z,8.63
2023-04-22T06:17:31.073Z,8.40
2023-04-22T06:19:58.775Z,7.22
2023-04-22T06:22:26.523Z,8.05
2023-04-22T06:24:54.393Z,7.88
2023-04-22T06:27:42.829Z,7.00
2023-04-22T06:30:12.623Z,7.30
2023-04-22T06:32:40.305Z,6.90
2023-04-22T06:35:09.163Z,8.15
2023-04-22T06:37:52.518Z,7.50
2023-04-22T06:40:20.154Z,6.95
2023-04-22T06:42:48.028Z,7.50
2023-04-22T06:45:17.118Z,7.20
2023-04-22T06:47:44.793Z,6.53
2023-04-22T06:50:12.657Z,6.57
2023-04-22T06:52:40.344Z,7.28
2023-04-22T06:55:11.470Z,6.60
2023-04-22T06:57:39.246Z,6.57
2023-04-22T07:00:08.629Z,6.63
2023-04-22T07:02:37.786Z,6.47
2023-04-22T07:05:06.213Z,5.82
2023-04-22T07:07:33.896Z,5.60
2023-04-22T07:10:30.695Z,5.95
2023-04-22T07:12:58.645Z,6.10
2023-04-22T07:15:26.356Z,5.80
2023-04-22T07:17:55.671Z,5.57
2023-04-22T07:20:23.632Z,5.57
2023-04-22T07:22:52.468Z,5.77
2023-04-22T07:25:20.155Z,5.82
2023-04-22T07:27:47.793Z,6.00
2023-04-22T07:30:15.877Z,5.10
2023-04-22T07:32:43.610Z,5.03
2023-04-22T07:35:12.742Z,5.15
2023-04-22T07:37:40.415Z,5.30
2023-04-22T07:40:11.830Z,5.15
2023-04-22T07:42:39.971Z,4.78
2023-04-22T07:45:08.651Z,5.00
2023-04-22T07:47:36.369Z,5.15
2023-04-22T07:50:04.668Z,5.30
2023-04-22T07:52:33.748Z,4.65
2023-04-22T07:55:01.780Z,5.47
2023-04-22T07:57:29.769Z,5.00
2023-04-22T07:59:57.418Z,4.90
2023-04-22T08:02:25.359Z,4.82
2023-04-22T08:04:53.216Z,5.03
2023-04-22T08:09:53.032Z,4.70
2023-04-22T08:12:20.726Z,4.75
2023-04-22T08:14:48.639Z,4.93
2023-04-22T08:17:16.281Z,4.97
2023-04-22T08:19:43.957Z,4.82
2023-04-22T08:22:13.637Z,4.57
2023-04-22T08:24:41.370Z,4.40
2023-04-22T08:27:10.425Z,4.18
2023-04-22T08:29:38.741Z,3.85
2023-04-22T08:32:06.748Z,4.15
2023-04-22T08:34:34.408Z,4.65
2023-04-22T08:37:02.076Z,3.75
2023-04-22T08:39:30.144Z,3.87
2023-04-22T08:41:58.456Z,4.00
2023-04-22T08:44:28.000Z,4.05
2023-04-22T08:46:56.395Z,3.13
2023-04-22T08:49:25.238Z,2.75
2023-04-22T08:51:53.752Z,2.80
2023-04-22T08:54:21.429Z,2.75
2023-04-22T08:56:51.208Z,2.47
2023-04-22T08:59:19.481Z,2.20
2023-04-22T09:01:51.505Z,2.58
2023-04-22T09:04:20.044Z,2.42
2023-04-22T09:06:47.917Z,2.50
2023-04-22T09:09:15.686Z,2.25
2023-04-22T09:11:43.377Z,2.55
2023-04-22T09:14:11.095Z,2.55
2023-04-22T09:16:42.703Z,2.20
2023-04-22T09:19:14.877Z,1.90
2023-04-22T09:21:43.137Z,2.20
2023-04-22T09:24:12.343Z,2.53
2023-04-22T09:26:41.028Z,2.40
2023-04-22T09:29:09.680Z,2.10
2023-04-22T09:31:38.478Z,2.58
2023-04-22T09:34:06.954Z,2.13
2023-04-22T09:36:37.699Z,2.53
2023-04-22T09:39:08.747Z,2.50
2023-04-22T09:41:38.777Z,2.33
2023-04-22T09:44:10.259Z,2.30
2023-04-22T09:46:37.991Z,2.50
2023-04-22T09:49:05.770Z,2.35
2023-04-22T09:51:34.551Z,2.72
2023-04-22T09:54:06.733Z,2.00
2023-04-22T09:56:48.114Z,2.25
2023-04-22T09:59:17.050Z,2.17
2023-04-22T10:01:44.784Z,2.37
2023-04-22T10:04:15.032Z,2.15
2023-04-22T10:06:43.227Z,2.35
2023-04-22T10:09:13.318Z,2.20
2023-04-22T10:11:41.737Z,2.53
2023-04-22T10:14:11.198Z,2.17
2023-04-22T10:16:39.818Z,2.30
2023-04-22T10:19:08.785Z,2.10
2023-04-22T10:21:36.808Z,2.17
2023-04-22T10:24:05.151Z,2.60
2023-04-22T10:26:45.378Z,2.37
2023-04-22T10:29:17.138Z,2.38
2023-04-22T10:31:45.798Z,2.00
2023-04-22T10:34:14.716Z,1.90
2023-04-22T10:36:55.915Z,1.90
2023-04-22T10:39:24.345Z,1.77
2023-04-22T10:41:59.353Z,1.88
2023-04-22T10:44:30.696Z,1.77
2023-04-22T10:47:00.742Z,1.55
2023-04-22T10:49:52.203Z,1.40
2023-04-22T10:52:29.423Z,1.30
2023-04-22T10:54:59.843Z,1.30
2023-04-22T10:57:41.737Z,1.33
2023-04-22T11:00:30.975Z,1.30
2023-04-22T11:03:12.618Z,1.50
2023-04-22T11:05:41.174Z,1.40
2023-04-22T11:08:11.759Z,1.58
2023-04-22T11:10:44.105Z,1.40
2023-04-22T11:13:16.139Z,1.40
2023-04-22T11:15:45.823Z,1.38
2023-04-22T11:18:21.496Z,1.40
2023-04-22T11:20:50.755Z,1.40
2023-04-22T11:23:21.164Z,1.35
2023-04-22T11:25:49.062Z,1.70
2023-04-22T11:28:22.874Z,1.50
2023-04-22T11:30:51.062Z,1.10
2023-04-22T11:33:18.987Z,1.60
2023-04-22T11:35:46.713Z,1.58
2023-04-22T11:38:14.498Z,1.10
2023-04-22T11:40:46.504Z,1.50
2023-04-22T11:43:14.962Z,1.27
2023-04-22T11:45:44.131Z,1.40
2023-04-22T11:48:12.847Z,1.45
2023-04-22T11:50:42.183Z,1.20
2023-04-22T11:53:15.458Z,1.38
2023-04-22T11:55:43.738Z,1.30
2023-04-22T11:58:13.452Z,1.05
2023-04-22T12:00:42.546Z,1.20
2023-04-22T12:03:17.926Z,1.23
2023-04-22T12:05:47.369Z,1.05
2023-04-22T12:08:16.696Z,1.33
2023-04-22T12:10:45.931Z,1.10
2023-04-22T12:13:19.857Z,1.00
2023-04-22T12:15:47.648Z,1.20
2023-04-22T12:18:16.759Z,1.30
2023-04-22T12:20:44.740Z,1.00
2023-04-22T12:23:16.225Z,1.30
2023-04-22T12:25:44.483Z,1.25
2023-04-22T12:28:13.433Z,1.10
2023-04-22T12:30:41.110Z,1.10
2023-04-22T12:33:09.458Z,1.20
2023-04-22T12:35:38.532Z,1.10
2023-04-22T12:41:10.841Z,1.23
2023-04-22T12:43:39.478Z,1.45
2023-04-22T12:46:08.002Z,1.20
2023-04-22T12:48:37.267Z,1.27
2023-04-22T12:51:07.506Z,1.20
2023-04-22T12:53:35.560Z,1.35
2023-04-22T12:56:03.259Z,1.42
2023-04-22T12:58:31.211Z,1.08
2023-04-22T13:00:58.922Z,1.52
2023-04-22T13:03:27.095Z,1.55
2023-04-22T13:05:56.017Z,1.30
2023-04-22T13:08:25.450Z,1.13
2023-04-22T13:10:53.931Z,1.02
2023-04-22T13:13:21.884Z,1.50
2023-04-22T13:15:53.315Z,0.90
2023-04-22T13:18:22.998Z,1.30
2023-04-22T13:20:51.292Z,1.40
2023-04-22T13:23:19.795Z,1.20
2023-04-22T13:25:48.933Z,1.40
2023-04-22T13:28:16.868Z,1.27
2023-04-22T13:30:44.693Z,1.27
2023-04-22T13:33:12.372Z,1.20
2023-04-22T13:35:40.649Z,1.42
2023-04-22T13:38:08.404Z,1.50
2023-04-22T13:40:36.231Z,1.50
2023-04-22T13:43:05.434Z,1.30
2023-04-22T13:45:33.500Z,1.52
2023-04-22T13:48:01.735Z,1.53
2023-04-22T13:50:29.445Z,1.70
2023-04-22T13:52:57.182Z,1.40
2023-04-22T13:55:26.668Z,1.60
2023-04-22T13:57:57.379Z,1.70
2023-04-22T14:00:26.446Z,1.63
2023-04-22T14:02:54.256Z,1.50
2023-04-22T14:05:21.989Z,1.50
2023-04-22T14:07:49.641Z,1.70
2023-04-22T14:10:20.325Z,1.40
2023-04-22T14:12:48.848Z,1.38
2023-04-22T14:15:16.709Z,1.35
2023-04-22T14:17:49.351Z,1.30
2023-04-22T14:20:17.941Z,1.60
2023-04-22T14:22:46.388Z,1.40
2023-04-22T14:25:14.392Z,1.45
2023-04-22T14:27:42.637Z,1.38
2023-04-22T14:30:11.188Z,1.40
2023-04-22T14:32:39.022Z,1.63
2023-04-22T14:35:09.109Z,1.53
2023-04-22T14:37:36.810Z,1.60
2023-04-22T14:40:05.705Z,1.50
2023-04-22T14:42:33.476Z,1.40
2023-04-22T14:45:01.540Z,1.30
2023-04-22T14:47:29.922Z,1.38
2023-04-22T14:49:57.653Z,1.55
2023-04-22T14:52:26.895Z,1.33
2023-04-22T14:54:54.563Z,1.17
2023-04-22T14:57:22.230Z,1.30
2023-04-22T14:59:50.144Z,1.48
2023-04-22T15:02:18.079Z,1.40
2023-04-22T15:04:45.803Z,1.60
2023-04-22T15:07:13.608Z,1.77
2023-04-22T15:09:43.096Z,1.35
2023-04-22T15:12:11.463Z,1.90
2023-04-22T15:14:39.969Z,2.00
2023-04-22T15:17:07.764Z,1.50
2023-04-22T15:19:35.631Z,1.60
2023-04-22T15:22:03.567Z,1.50
2023-04-22T15:24:31.559Z,1.73
2023-04-22T15:27:01.280Z,1.73
2023-04-22T15:29:29.469Z,2.00
2023-04-22T15:31:57.846Z,1.80
2023-04-22T15:34:25.986Z,2.03
2023-04-22T15:36:54.162Z,2.00
2023-04-22T15:39:22.204Z,2.08
2023-04-22T15:41:49.951Z,1.60
2023-04-22T15:44:19.283Z,1.75
2023-04-22T15:46:47.383Z,1.80
2023-04-22T15:49:15.805Z,1.33
2023-04-22T15:51:43.556Z,1.10
2023-04-22T15:54:11.454Z,1.30
2023-04-22T15:56:39.144Z,1.83
2023-04-22T15:59:07.025Z,1.85
2023-04-22T16:01:36.138Z,1.60
2023-04-22T16:04:04.388Z,1.90
2023-04-22T16:06:32.298Z,1.75
2023-04-22T16:08:59.973Z,1.85
2023-04-22T16:11:27.650Z,1.80
2023-04-22T16:13:55.300Z,1.88
2023-04-22T16:16:23.836Z,1.85
2023-04-22T16:18:53.314Z,2.03
2023-04-22T16:21:21.216Z,1.70
2023-04-22T16:23:49.675Z,1.70
2023-04-22T16:26:17.430Z,1.95
2023-04-22T16:28:46.736Z,2.13
2023-04-22T16:31:14.576Z,1.70
2023-04-22T16:33:42.260Z,1.77
2023-04-22T16:36:11.472Z,1.63
2023-04-22T16:38:39.168Z,1.83
2023-04-22T16:41:07.355Z,1.60
2023-04-22T16:43:35.068Z,1.70
2023-04-22T16:46:03.760Z,1.70
2023-04-22T16:48:31.547Z,1.73
2023-04-22T16:50:59.273Z,1.92
2023-04-22T16:53:28.409Z,1.90
2023-04-22T16:55:56.664Z,1.92
2023-04-22T16:58:24.416Z,1.67
2023-04-22T17:00:52.665Z,2.10
2023-04-22T17:03:21.334Z,2.00
2023-04-22T17:05:49.134Z,1.90
2023-04-22T17:08:17.059Z,2.13
2023-04-22T17:10:46.388Z,2.20
2023-04-22T17:13:14.479Z,2.30
2023-04-22T17:15:42.307Z,2.20
2023-04-22T17:18:10.626Z,2.33
2023-04-22T17:20:38.506Z,2.17
2023-04-22T17:23:06.183Z,2.55
2023-04-22T17:25:33.901Z,2.53
2023-04-22T17:28:02.992Z,2.13
2023-04-22T17:30:30.775Z,2.03
2023-04-22T17:32:58.807Z,2.10
2023-04-22T17:35:26.510Z,2.53
2023-04-22T17:37:54.465Z,2.50
2023-04-22T17:40:23.059Z,2.40
2023-04-22T17:42:51.224Z,2.22
2023-04-22T17:45:20.357Z,2.63
2023-04-22T17:47:48.814Z,2.50
2023-04-22T17:50:16.856Z,2.90
2023-04-22T17:52:44.604Z,2.80
2023-04-22T17:55:12.372Z,3.10
2023-04-22T17:57:40.810Z,3.33
2023-04-22T18:00:10.194Z,3.05
2023-04-22T18:02:39.425Z,4.00
2023-04-22T18:05:07.887Z,2.92
2023-04-22T18:07:35.600Z,2.60
2023-04-22T18:10:03.381Z,2.95
2023-04-22T18:12:31.276Z,3.20
2023-04-22T18:14:59.296Z,3.17
2023-04-22T18:17:27.059Z,3.17
2023-04-22T18:20:09.687Z,3.45
2023-04-22T18:22:42.686Z,3.63
2023-04-22T18:25:10.519Z,3.90
2023-04-22T18:27:38.231Z,3.75
2023-04-22T18:30:07.238Z,3.70
2023-04-22T18:32:35.954Z,2.70
2023-04-22T18:35:06.027Z,2.90
2023-04-22T18:37:34.879Z,2.75
2023-04-22T18:40:02.906Z,2.60
2023-04-22T18:42:31.040Z,2.97
2023-04-22T18:44:58.849Z,2.70
2023-04-22T18:47:27.071Z,2.95
2023-04-22T18:49:54.734Z,3.00
2023-04-22T18:52:23.802Z,3.20
2023-04-22T18:54:51.548Z,3.00
2023-04-22T18:57:19.586Z,3.47
2023-04-22T18:59:48.463Z,3.80
2023-04-22T19:02:16.996Z,4.28
2023-04-22T19:04:45.111Z,5.00
2023-04-22T19:07:13.654Z,4.82
2023-04-22T19:09:42.664Z,4.38
2023-04-22T19:12:14.827Z,5.28
2023-04-22T19:14:42.912Z,4.72
2023-04-22T19:17:11.001Z,4.80
2023-04-22T19:19:39.093Z,4.50
2023-04-22T19:22:07.071Z,4.20
2023-04-22T19:24:35.378Z,4.47
2023-04-22T19:27:06.915Z,4.07
2023-04-22T19:29:34.684Z,4.30
2023-04-22T19:32:03.406Z,4.22
2023-04-22T19:34:31.580Z,4.43
2023-04-22T19:36:59.200Z,4.60
2023-04-22T19:39:26.923Z,4.73
2023-04-22T19:41:58.202Z,4.18
2023-04-22T19:44:27.304Z,4.45
2023-04-22T19:46:55.258Z,4.35
2023-04-22T19:49:23.792Z,4.18
2023-04-22T19:51:52.494Z,4.82
2023-04-22T19:54:21.940Z,4.85
2023-04-22T19:56:49.797Z,4.73
2023-04-22T19:59:17.902Z,4.90
2023-04-22T20:01:47.498Z,5.13
2023-04-22T20:04:16.043Z,5.00
2023-04-22T20:06:44.806Z,5.22
2023-04-22T20:09:13.315Z,5.57
2023-04-22T20:11:41.860Z,5.32
2023-04-22T20:14:10.408Z,5.70
2023-04-22T20:16:38.972Z,6.00
2023-04-22T20:19:08.278Z,5.70
2023-04-22T20:21:36.944Z,5.60
2023-04-22T20:24:05.863Z,6.22
2023-04-22T20:26:33.886Z,5.80
2023-04-22T20:29:01.716Z,6.65
2023-04-22T20:31:30.493Z,6.10
2023-04-22T20:33:58.688Z,6.30
2023-04-22T20:36:27.818Z,6.38
2023-04-22T20:38:56.202Z,5.88
2023-04-22T20:41:25.515Z,5.55
2023-04-22T20:43:53.320Z,5.47
2023-04-22T20:46:23.351Z,5.00
2023-04-22T20:48:51.664Z,5.18
2023-04-22T20:51:19.549Z,6.00
2023-04-22T20:53:48.568Z,6.35
2023-04-22T20:56:16.390Z,6.35
2023-04-22T20:58:44.083Z,6.27
2023-04-22T21:01:12.112Z,6.43
2023-04-22T21:03:40.416Z,6.43
2023-04-22T21:06:09.086Z,7.13
2023-04-22T21:08:39.224Z,7.85
2023-04-22T21:11:08.843Z,6.85
2023-04-22T21:13:37.076Z,7.43
2023-04-22T21:16:06.016Z,8.00
2023-04-22T21:18:35.656Z,7.32
2023-04-22T21:21:04.713Z,6.85
2023-04-22T21:23:33.122Z,8.10
2023-04-22T21:26:02.638Z,8.70
2023-04-22T21:28:32.410Z,8.55
2023-04-22T21:31:01.016Z,9.30
2023-04-22T21:33:28.698Z,9.80
2023-04-22T21:35:56.467Z,9.98
2023-04-22T21:38:24.131Z,10.32
2023-04-22T21:40:51.956Z,11.10
2023-04-22T21:43:19.654Z,11.68
2023-04-22T21:45:48.676Z,10.95
2023-04-22T21:48:16.353Z,12.48
2023-04-22T21:50:44.094Z,12.10
2023-04-22T21:53:12.294Z,12.88
2023-04-22T21:55:40.014Z,11.52
2023-04-22T21:58:07.975Z,13.27
2023-04-22T22:00:37.712Z,13.43
2023-04-22T22:03:07.253Z,14.20
2023-04-22T22:05:35.265Z,14.02
2023-04-22T22:08:03.186Z,15.55
2023-04-22T22:10:30.888Z,16.00
2023-04-22T22:12:58.536Z,15.93
2023-04-22T22:15:26.176Z,16.38
2023-04-22T22:17:53.964Z,16.08
2023-04-22T22:20:23.878Z,15.90
2023-04-22T22:22:51.581Z,16.50
2023-04-22T22:25:19.225Z,17.50
2023-04-22T22:27:48.748Z,17.52
2023-04-22T22:30:17.007Z,17.52
2023-04-22T22:32:44.746Z,17.38
2023-04-22T22:35:12.473Z,17.73
2023-04-22T22:37:42.182Z,18.05
2023-04-22T22:40:11.170Z,17.87
2023-04-22T22:42:38.811Z,19.05
2023-04-22T22:45:07.612Z,21.00
2023-04-22T22:47:35.375Z,18.75
2023-04-22T22:50:03.222Z,18.65
2023-04-22T22:52:31.989Z,20.75
2023-04-22T22:55:01.073Z,21.92
2023-04-22T22:57:28.725Z,20.45
2023-04-22T22:59:56.430Z,20.20
2023-04-22T23:02:24.159Z,21.20
2023-04-22T23:04:51.912Z,21.77
2023-04-22T23:07:19.592Z,21.35
2023-04-22T23:09:47.220Z,20.30
2023-04-22T23:12:16.285Z,20.38
2023-04-22T23:14:44.243Z,20.27
2023-04-22T23:17:11.941Z,20.98
2023-04-22T23:19:40.425Z,20.92
2023-04-22T23:22:08.351Z,20.05
2023-04-22T23:24:36.828Z,21.00
2023-04-22T23:27:05.493Z,20.92
2023-04-22T23:29:36.678Z,20.02
2023-04-22T23:32:05.448Z,21.75
2023-04-22T23:34:35.154Z,21.65
2023-04-22T23:37:05.419Z,22.48
2023-04-22T23:42:14.556Z,22.42
2023-04-22T23:44:43.669Z,23.98
2023-04-22T23:47:12.280Z,23.02
2023-04-22T23:49:41.521Z,24.58
2023-04-22T23:52:10.456Z,25.30
2023-04-22T23:54:38.767Z,24.20
2023-04-22T23:57:07.308Z,26.52
